Time;durP1;ratioP1;P1;durP2;ratioP2;P2;SDS_P1;SDS_P2;PMS_P1;PMS_P2;Temp;Humidity;BMP_temperature;BMP_pressure;BME280_temperature;BME280_humidity;BME280_pressure;Samples;Min_cycle;Max_cycle;Signal;HPM_P1;HPM_P2
2022/04/03 00:00:06;;;;;;;7.68;5.53;;;;;;;1.62;60.82;99132.03;2618467;54;20042;-64
2022/04/03 00:02:36;;;;;;;6.95;5.07;;;;;;;1.63;61.21;99131.91;2618545;54;20038;-62
2022/04/03 00:05:08;;;;;;;8.90;5.80;;;;;;;1.68;60.70;99132.34;2618974;39;20481;-63
2022/04/03 00:07:38;;;;;;;7.90;5.88;;;;;;;1.74;61.33;99126.63;2621195;54;20030;-64
2022/04/03 00:10:09;;;;;;;8.00;6.00;;;;;;;1.72;61.52;99131.13;2620481;54;20026;-64
2022/04/03 00:12:41;;;;;;;7.50;5.53;;;;;;;1.83;61.35;99132.00;2621203;54;20597;-62
2022/04/03 00:15:12;;;;;;;8.70;5.78;;;;;;;1.93;61.44;99135.50;2622616;54;20588;-63
2022/04/03 00:17:41;;;;;;;7.38;5.40;;;;;;;1.80;61.19;99122.69;2622114;54;20035;-63
2022/04/03 00:20:12;;;;;;;7.32;5.70;;;;;;;1.76;61.13;99126.50;2620782;54;20551;-64
2022/04/03 00:22:48;;;;;;;8.00;5.63;;;;;;;1.76;61.29;99123.91;2618353;54;20034;-62
2022/04/03 00:25:18;;;;;;;7.95;5.78;;;;;;;1.86;61.48;99123.94;2618409;54;20038;-64
2022/04/03 00:27:50;;;;;;;9.85;6.00;;;;;;;1.90;61.40;99126.16;2617498;47;20027;-64
2022/04/03 00:30:20;;;;;;;7.40;5.65;;;;;;;2.01;61.56;99125.25;2617670;54;20027;-62
2022/04/03 00:32:49;;;;;;;6.43;5.50;;;;;;;2.06;61.38;99128.28;2618087;54;20046;-63
2022/04/03 00:35:20;;;;;;;6.15;5.30;;;;;;;2.04;61.21;99130.22;2617413;54;20035;-64
2022/04/03 00:37:49;;;;;;;8.30;6.63;;;;;;;2.06;61.23;99130.06;2617843;54;20589;-63
2022/04/03 00:40:23;;;;;;;8.00;6.15;;;;;;;2.06;60.84;99130.91;2618142;54;20585;-63
2022/04/03 00:42:56;;;;;;;9.65;5.82;;;;;;;2.09;60.94;99138.47;2618167;54;20030;-64
2022/04/03 00:45:26;;;;;;;7.20;5.22;;;;;;;2.15;61.13;99135.31;2618326;54;20034;-64
2022/04/03 00:47:57;;;;;;;8.48;5.15;;;;;;;2.16;60.99;99136.16;2617914;54;20035;-63
2022/04/03 00:50:29;;;;;;;6.85;5.38;;;;;;;2.18;61.13;99132.47;2618035;54;20030;-63
2022/04/03 00:52:59;;;;;;;7.05;5.20;;;;;;;2.05;60.82;99133.66;2618271;54;20038;-63
2022/04/03 00:55:29;;;;;;;6.30;5.18;;;;;;;2.13;61.08;99129.44;2617838;47;20023;-63
2022/04/03 00:58:01;;;;;;;6.65;5.32;;;;;;;2.21;60.49;99137.44;2618369;54;20035;-64
2022/04/03 01:00:31;;;;;;;7.60;5.63;;;;;;;2.25;60.69;99126.72;2619216;54;20135;-63
2022/04/03 01:03:01;;;;;;;5.68;5.10;;;;;;;2.29;60.45;99135.94;2622782;54;20042;-62
2022/04/03 01:05:30;;;;;;;7.72;5.43;;;;;;;2.20;60.47;99138.38;2622797;47;20034;-64
2022/04/03 01:08:00;;;;;;;7.07;5.22;;;;;;;2.23;60.54;99135.50;2622983;54;20056;-64
2022/04/03 01:10:29;;;;;;;8.00;5.70;;;;;;;2.18;60.37;99135.06;2623285;47;20030;-63
2022/04/03 01:13:02;;;;;;;9.00;5.65;;;;;;;2.18;60.14;99137.69;2623416;54;20031;-63
2022/04/03 01:15:33;;;;;;;7.05;5.15;;;;;;;2.08;60.15;99134.22;2623650;54;20030;-63
2022/04/03 01:18:03;;;;;;;5.78;5.13;;;;;;;2.15;60.22;99143.16;2623124;54;20034;-63
2022/04/03 01:20:32;;;;;;;10.57;5.55;;;;;;;2.14;60.13;99143.28;2618822;54;20118;-63
2022/04/03 01:23:02;;;;;;;7.20;5.05;;;;;;;1.97;59.55;99139.50;2618140;54;20027;-63
2022/04/03 01:25:34;;;;;;;8.95;5.35;;;;;;;2.00;60.13;99141.88;2618029;54;20026;-63
2022/04/03 01:28:04;;;;;;;6.40;5.03;;;;;;;2.12;60.26;99135.59;2617885;54;20057;-63
2022/04/03 01:30:34;;;;;;;6.05;4.88;;;;;;;2.27;60.26;99137.84;2617392;47;20045;-63
2022/04/03 01:33:03;;;;;;;7.75;5.38;;;;;;;2.29;60.26;99136.78;2618002;54;20055;-64
2022/04/03 01:35:33;;;;;;;8.32;5.65;;;;;;;2.36;59.86;99144.88;2617974;54;20038;-64
2022/04/03 01:38:02;;;;;;;7.25;5.10;;;;;;;2.45;59.97;99144.09;2617677;54;20030;-62
2022/04/03 01:40:35;;;;;;;7.30;5.38;;;;;;;2.45;59.94;99144.09;2617291;47;20035;-63
2022/04/03 01:43:06;;;;;;;6.90;5.03;;;;;;;2.44;59.49;99145.03;2618019;54;20042;-63
2022/04/03 01:45:36;;;;;;;8.55;5.32;;;;;;;2.46;59.83;99138.75;2618054;54;20042;-63
2022/04/03 01:48:07;;;;;;;6.93;5.15;;;;;;;2.54;59.68;99140.69;2617431;54;20035;-63
2022/04/03 01:50:37;;;;;;;8.48;5.18;;;;;;;2.60;59.47;99140.16;2617876;54;20037;-63
2022/04/03 01:53:06;;;;;;;9.45;5.20;;;;;;;2.64;59.27;99135.50;2619418;39;20463;-63
2022/04/03 01:55:40;;;;;;;9.90;5.35;;;;;;;2.60;59.25;99140.16;2617971;54;20035;-63
2022/04/03 01:58:09;;;;;;;6.60;5.45;;;;;;;2.61;59.64;99140.97;2617970;54;20031;-63
2022/04/03 02:00:41;;;;;;;8.25;5.90;;;;;;;2.61;60.05;99138.34;2618880;31;20510;-63
2022/04/03 02:03:10;;;;;;;6.63;5.60;;;;;;;2.51;59.97;99143.56;2618088;54;20041;-63
2022/04/03 02:05:40;;;;;;;7.47;6.47;;;;;;;2.46;59.97;99143.13;2617267;54;20038;-63
2022/04/03 02:08:10;;;;;;;8.57;6.43;;;;;;;2.38;60.40;99137.75;2617662;54;20034;-63
2022/04/03 02:10:43;;;;;;;10.38;6.20;;;;;;;2.31;60.57;99134.03;2617992;54;20034;-63
2022/04/03 02:13:12;;;;;;;8.10;6.15;;;;;;;2.27;60.71;99148.28;2617984;54;20039;-63
2022/04/03 02:15:42;;;;;;;9.52;6.43;;;;;;;2.32;60.82;99149.53;2617746;54;20575;-63
2022/04/03 02:18:12;;;;;;;9.13;6.57;;;;;;;2.33;60.98;99142.56;2617774;54;20050;-63
2022/04/03 02:20:42;;;;;;;10.70;6.20;;;;;;;2.34;61.24;99144.19;2618747;54;20039;-63
2022/04/03 02:23:13;;;;;;;10.10;6.47;;;;;;;2.33;61.39;99148.59;2618774;54;20031;-63
2022/04/03 02:25:49;;;;;;;7.45;5.93;;;;;;;2.35;61.29;99151.06;2618730;54;20057;-62
2022/04/03 02:28:19;;;;;;;9.18;6.30;;;;;;;2.27;61.28;99151.72;2617943;47;20038;-62
2022/04/03 02:30:49;;;;;;;9.48;6.85;;;;;;;2.18;61.72;99150.72;2618783;54;20054;-62
2022/04/03 02:33:19;;;;;;;10.00;6.78;;;;;;;2.21;61.88;99140.03;2618767;54;20034;-62
2022/04/03 02:35:49;;;;;;;9.02;6.75;;;;;;;2.17;61.92;99145.66;2618925;54;20039;-62
2022/04/03 02:38:19;;;;;;;10.55;6.63;;;;;;;2.22;62.02;99156.50;2618509;54;20065;-62
2022/04/03 02:40:52;;;;;;;9.93;6.60;;;;;;;2.20;62.15;99158.41;2619343;39;20418;-62
2022/04/03 02:43:22;;;;;;;9.18;6.32;;;;;;;2.17;62.12;99156.91;2622661;54;20049;-62
2022/04/03 02:45:52;;;;;;;8.45;6.35;;;;;;;2.14;61.73;99158.94;2622270;39;20439;-62
2022/04/03 02:48:22;;;;;;;9.20;6.55;;;;;;;2.13;62.12;99160.72;2618184;39;20120;-63
2022/04/03 02:50:51;;;;;;;8.20;5.97;;;;;;;2.11;62.05;99162.63;2618794;54;20042;-62
2022/04/03 02:53:21;;;;;;;12.05;6.43;;;;;;;2.17;61.81;99156.06;2618541;54;20054;-62
2022/04/03 02:55:53;;;;;;;7.55;6.32;;;;;;;2.16;62.18;99159.63;2618280;54;20030;-62
2022/04/03 02:58:23;;;;;;;7.60;5.78;;;;;;;2.10;62.08;99163.59;2617937;54;20026;-62
2022/04/03 03:00:52;;;;;;;8.35;6.13;;;;;;;2.08;62.21;99164.66;2618415;39;20447;-63
2022/04/03 03:03:22;;;;;;;8.77;6.45;;;;;;;1.98;62.17;99162.00;2618538;54;20042;-62
2022/04/03 03:05:51;;;;;;;9.30;6.50;;;;;;;1.86;62.48;99165.66;2618518;54;20079;-62
2022/04/03 03:08:21;;;;;;;9.65;7.13;;;;;;;1.84;62.53;99167.56;2618052;54;20074;-62
2022/04/03 03:10:53;;;;;;;9.63;6.45;;;;;;;1.87;62.82;99164.69;2618605;54;20030;-62
2022/04/03 03:13:23;;;;;;;9.00;6.38;;;;;;;1.95;62.69;99167.47;2618908;54;20031;-62
2022/04/03 03:15:53;;;;;;;8.20;5.75;;;;;;;1.97;62.34;99161.19;2620893;54;20031;-63
2022/04/03 03:18:22;;;;;;;9.60;6.63;;;;;;;1.98;62.18;99160.22;2620347;54;20041;-64
2022/04/03 03:20:52;;;;;;;8.77;6.47;;;;;;;1.96;62.32;99162.16;2618693;54;20042;-63
2022/04/03 03:23:21;;;;;;;8.85;6.57;;;;;;;1.99;62.55;99166.25;2618006;54;20035;-63
2022/04/03 03:25:53;;;;;;;8.13;6.78;;;;;;;2.05;62.47;99167.56;2620168;54;20030;-63
2022/04/03 03:28:23;;;;;;;9.65;6.15;;;;;;;2.04;62.81;99171.94;2619121;54;20030;-63
2022/04/03 03:30:53;;;;;;;8.75;6.75;;;;;;;2.04;62.81;99177.16;2619311;54;20034;-62
2022/04/03 03:33:22;;;;;;;8.32;6.38;;;;;;;1.98;62.43;99181.09;2620102;54;20061;-63
2022/04/03 03:35:55;;;;;;;8.73;6.05;;;;;;;1.95;62.79;99183.13;2619994;39;20448;-62
2022/04/03 03:38:24;;;;;;;11.15;6.00;;;;;;;1.99;62.78;99176.69;2619874;54;20038;-62
2022/04/03 03:40:56;;;;;;;9.95;6.18;;;;;;;2.07;62.64;99181.28;2620768;39;20434;-62
2022/04/03 03:43:26;;;;;;;9.43;6.22;;;;;;;2.06;62.73;99177.84;2620701;54;20030;-62
2022/04/03 03:45:56;;;;;;;8.52;5.57;;;;;;;2.07;62.47;99174.28;2621825;54;20061;-62
2022/04/03 03:48:26;;;;;;;11.30;6.22;;;;;;;2.13;62.56;99175.56;2622177;54;20026;-62
2022/04/03 03:50:56;;;;;;;7.82;5.63;;;;;;;2.11;62.64;99169.63;2622220;54;20030;-62
2022/04/03 03:53:26;;;;;;;8.50;6.40;;;;;;;1.99;62.35;99176.69;2622518;54;20033;-62
2022/04/03 03:55:58;;;;;;;9.52;6.40;;;;;;;1.88;63.28;99175.00;2622688;54;20045;-62
2022/04/03 03:58:28;;;;;;;10.20;6.60;;;;;;;1.95;63.44;99178.72;2621948;54;20287;-62
2022/04/03 04:00:57;;;;;;;7.60;6.10;;;;;;;1.99;63.13;99184.53;2621947;54;20038;-63
2022/04/03 04:03:27;;;;;;;7.85;5.28;;;;;;;2.01;62.93;99185.22;2622328;54;20034;-62
2022/04/03 04:05:57;;;;;;;9.25;6.15;;;;;;;2.04;63.08;99182.38;2621994;54;20026;-63
2022/04/03 04:08:27;;;;;;;7.32;5.82;;;;;;;2.06;63.24;99185.66;2621975;39;20430;-62
2022/04/03 04:11:00;;;;;;;7.25;5.55;;;;;;;1.97;62.74;99189.88;2621555;54;20033;-63
2022/04/03 04:13:33;;;;;;;8.95;5.97;;;;;;;1.69;62.62;99186.13;2621849;54;20561;-63
2022/04/03 04:16:03;;;;;;;7.68;6.63;;;;;;;1.64;63.00;99188.28;2622047;54;20024;-63
2022/04/03 04:18:33;;;;;;;10.57;6.00;;;;;;;1.45;63.50;99194.16;2621448;54;20030;-63
2022/04/03 04:21:03;;;;;;;7.82;6.00;;;;;;;1.40;63.43;99201.53;2621175;54;20057;-63
2022/04/03 04:23:33;;;;;;;10.00;5.68;;;;;;;1.35;63.52;99202.88;2620134;54;20034;-63
2022/04/03 04:26:06;;;;;;;7.13;5.95;;;;;;;1.31;63.54;99204.91;2620684;54;20038;-64
2022/04/03 04:28:36;;;;;;;7.38;5.97;;;;;;;1.29;63.77;99201.56;2620950;39;20470;-62
2022/04/03 04:31:05;;;;;;;8.55;5.47;;;;;;;1.40;63.52;99201.53;2620717;54;20046;-63
2022/04/03 04:33:35;;;;;;;8.05;5.40;;;;;;;1.48;63.31;99198.31;2620286;54;20069;-63
2022/04/03 04:36:06;;;;;;;7.47;5.60;;;;;;;1.53;63.17;99200.53;2620705;54;20042;-62
2022/04/03 04:38:36;;;;;;;7.63;5.78;;;;;;;1.52;62.80;99199.72;2620325;54;20030;-63
2022/04/03 04:41:08;;;;;;;7.60;5.70;;;;;;;1.60;63.16;99212.13;2620340;39;20430;-61
2022/04/03 04:43:38;;;;;;;8.82;6.03;;;;;;;1.68;62.94;99209.72;2620658;54;20034;-61
2022/04/03 04:46:08;;;;;;;7.97;6.75;;;;;;;1.64;62.84;99216.97;2620402;54;20036;-61
2022/04/03 04:48:39;;;;;;;8.40;6.43;;;;;;;1.51;62.86;99213.72;2619515;47;20551;-61
2022/04/03 04:51:09;;;;;;;8.88;6.88;;;;;;;1.45;63.47;99229.81;2620490;54;20042;-61
2022/04/03 04:53:38;;;;;;;7.47;5.68;;;;;;;1.32;63.90;99226.56;2620133;54;20054;-61
2022/04/03 04:56:12;;;;;;;8.30;5.90;;;;;;;1.30;64.74;99228.44;2619151;54;20053;-61
2022/04/03 04:58:42;;;;;;;10.52;6.88;;;;;;;1.33;64.56;99229.03;2618263;54;20086;-62
2022/04/03 05:01:11;;;;;;;8.07;5.78;;;;;;;1.38;64.54;99223.44;2618612;54;20039;-61
2022/04/03 05:03:41;;;;;;;7.45;5.45;;;;;;;1.40;64.40;99227.59;2619645;54;20085;-61
2022/04/03 05:06:15;;;;;;;9.90;6.43;;;;;;;1.38;63.91;99226.88;2621194;54;20039;-62
2022/04/03 05:08:46;;;;;;;8.23;6.72;;;;;;;1.44;63.71;99222.97;2621076;54;20590;-62
2022/04/03 05:11:18;;;;;;;10.45;6.18;;;;;;;1.47;64.14;99230.53;2622009;54;20031;-62
2022/04/03 05:13:49;;;;;;;9.32;5.85;;;;;;;1.55;63.92;99235.97;2621557;54;20034;-62
2022/04/03 05:16:20;;;;;;;6.95;5.40;;;;;;;1.60;63.68;99235.56;2621218;54;20045;-63
2022/04/03 05:18:50;;;;;;;8.40;5.75;;;;;;;1.61;63.89;99240.66;2619995;54;20065;-63
2022/04/03 05:21:20;;;;;;;9.43;6.28;;;;;;;1.57;63.82;99247.06;2620227;54;20038;-63
2022/04/03 05:23:49;;;;;;;9.32;6.28;;;;;;;1.58;63.92;99245.28;2620203;54;20110;-63
2022/04/03 05:26:22;;;;;;;8.13;6.00;;;;;;;1.49;64.39;99242.47;2619532;39;20667;-63
2022/04/03 05:28:51;;;;;;;9.38;6.60;;;;;;;1.41;63.94;99250.06;2619277;47;20073;-64
2022/04/03 05:31:21;;;;;;;7.35;5.95;;;;;;;1.31;64.36;99251.78;2620548;39;20406;-63
2022/04/03 05:33:50;;;;;;;7.20;5.82;;;;;;;1.24;64.61;99248.84;2619935;54;20053;-62
2022/04/03 05:36:20;;;;;;;8.38;5.82;;;;;;;1.37;64.84;99247.84;2619395;54;20038;-62
2022/04/03 05:38:50;;;;;;;9.55;6.18;;;;;;;1.48;64.76;99258.25;2617697;54;20045;-62
2022/04/03 05:41:22;;;;;;;6.82;5.78;;;;;;;1.57;64.56;99259.28;2617924;54;20053;-62
2022/04/03 05:43:56;;;;;;;9.00;6.05;;;;;;;1.61;64.63;99268.50;2618122;54;20046;-62
2022/04/03 05:46:26;;;;;;;9.77;6.80;;;;;;;1.63;64.47;99264.81;2618013;54;20563;-62
2022/04/03 05:48:55;;;;;;;8.88;6.28;;;;;;;1.72;64.56;99263.25;2617703;54;20138;-62
2022/04/03 05:51:25;;;;;;;7.50;6.15;;;;;;;1.76;64.25;99263.84;2618064;54;20039;-62
2022/04/03 05:53:54;;;;;;;9.10;5.97;;;;;;;1.80;64.51;99260.03;2617838;54;20042;-62
2022/04/03 05:56:27;;;;;;;13.02;6.90;;;;;;;1.81;63.98;99262.50;2618161;54;20034;-62
2022/04/03 05:58:57;;;;;;;7.38;6.03;;;;;;;1.84;64.01;99261.44;2617904;54;20034;-62
2022/04/03 06:01:26;;;;;;;9.63;6.05;;;;;;;1.91;64.07;99270.38;2619534;54;20035;-62
2022/04/03 06:03:56;;;;;;;10.63;6.68;;;;;;;1.90;63.93;99269.53;2619186;54;20027;-62
2022/04/03 06:06:26;;;;;;;12.52;6.60;;;;;;;1.95;63.61;99270.00;2619114;54;20026;-62
2022/04/03 06:08:56;;;;;;;9.95;5.88;;;;;;;1.94;63.95;99270.94;2618370;54;20026;-62
2022/04/03 06:11:28;;;;;;;8.73;6.28;;;;;;;1.99;63.49;99276.59;2619504;31;20556;-62
2022/04/03 06:13:57;;;;;;;10.27;5.90;;;;;;;1.97;63.49;99288.97;2619951;54;20035;-62
2022/04/03 06:16:27;;;;;;;8.27;5.63;;;;;;;1.80;63.22;99283.47;2619654;54;20041;-62
2022/04/03 06:18:57;;;;;;;9.32;6.13;;;;;;;1.75;63.22;99289.03;2619115;54;20026;-62
2022/04/03 06:21:26;;;;;;;7.05;5.45;;;;;;;1.84;63.07;99300.53;2619740;54;20026;-62
2022/04/03 06:23:56;;;;;;;7.90;5.18;;;;;;;1.92;62.85;99304.16;2617908;54;20033;-62
2022/04/03 06:26:28;;;;;;;8.68;5.68;;;;;;;1.99;62.42;99296.66;2617943;54;20034;-63
2022/04/03 06:28:58;;;;;;;9.05;6.45;;;;;;;2.03;62.49;99303.25;2617957;54;20046;-64
2022/04/03 06:31:31;;;;;;;8.27;5.75;;;;;;;2.10;62.37;99301.00;2618275;54;20034;-63
2022/04/03 06:34:02;;;;;;;10.50;5.97;;;;;;;2.20;61.92;99301.88;2618281;54;20043;-63
2022/04/03 06:36:31;;;;;;;6.85;5.20;;;;;;;2.24;61.61;99308.47;2618367;54;20039;-62
2022/04/03 06:39:01;;;;;;;7.38;5.45;;;;;;;2.23;60.90;99314.66;2617885;54;20029;-62
2022/04/03 06:41:35;;;;;;;7.07;5.55;;;;;;;2.27;60.43;99305.63;2618689;39;20514;-63
2022/04/03 06:44:04;;;;;;;7.40;5.68;;;;;;;2.27;60.26;99316.06;2620890;54;20044;-63
2022/04/03 06:46:34;;;;;;;6.93;4.97;;;;;;;2.24;59.65;99313.69;2619429;54;20030;-62
2022/04/03 06:49:04;;;;;;;10.05;6.78;;;;;;;2.09;59.66;99318.41;2618266;54;20035;-62
2022/04/03 06:51:34;;;;;;;7.40;5.22;;;;;;;2.17;59.99;99321.22;2619656;54;20166;-62
2022/04/03 06:54:03;;;;;;;7.07;5.15;;;;;;;2.30;58.94;99318.44;2617815;54;20054;-62
2022/04/03 06:56:35;;;;;;;7.45;6.30;;;;;;;2.29;58.43;99326.41;2618785;39;20434;-62
2022/04/03 06:59:06;;;;;;;7.53;5.65;;;;;;;2.19;58.14;99327.13;2618006;54;20039;-61
2022/04/03 07:01:35;;;;;;;5.80;4.75;;;;;;;2.09;58.36;99328.84;2618256;46;20042;-62
2022/04/03 07:04:05;;;;;;;5.70;5.18;;;;;;;2.16;58.57;99327.41;2617926;54;20054;-61
2022/04/03 07:06:35;;;;;;;7.75;5.85;;;;;;;2.31;58.55;99332.28;2618901;54;20042;-63
2022/04/03 07:09:05;;;;;;;7.00;5.43;;;;;;;2.39;58.04;99337.72;2618951;39;20420;-62
2022/04/03 07:11:37;;;;;;;7.22;4.80;;;;;;;2.37;57.69;99334.41;2619669;54;20038;-62
2022/04/03 07:14:07;;;;;;;8.10;5.22;;;;;;;2.36;57.41;99341.38;2622679;54;20046;-63
2022/04/03 07:16:36;;;;;;;6.63;5.22;;;;;;;2.55;57.81;99339.88;2623172;54;20038;-64
2022/04/03 07:19:07;;;;;;;8.55;4.82;;;;;;;2.69;57.47;99343.00;2623060;54;20033;-64
2022/04/03 07:21:36;;;;;;;5.15;4.25;;;;;;;2.70;56.77;99344.63;2622922;54;20034;-63
2022/04/03 07:24:07;;;;;;;6.78;5.50;;;;;;;2.68;56.42;99340.50;2620038;47;20026;-63
2022/04/03 07:26:40;;;;;;;8.93;4.93;;;;;;;2.80;56.18;99347.28;2619858;54;20086;-63
2022/04/03 07:29:09;;;;;;;9.40;5.78;;;;;;;2.85;56.09;99345.09;2618304;54;20041;-63
2022/04/03 07:31:39;;;;;;;9.05;5.40;;;;;;;2.78;55.91;99340.56;2618457;54;20049;-64
2022/04/03 07:34:08;;;;;;;7.07;4.88;;;;;;;2.82;54.97;99350.63;2619782;54;20554;-63
2022/04/03 07:36:38;;;;;;;6.85;4.60;;;;;;;2.58;55.24;99352.69;2620241;54;20039;-64
2022/04/03 07:39:09;;;;;;;9.38;6.50;;;;;;;2.73;55.54;99353.97;2620997;54;20040;-63
2022/04/03 07:41:42;;;;;;;9.85;4.68;;;;;;;2.88;55.51;99350.06;2621438;54;20551;-65
2022/04/03 07:44:13;;;;;;;7.60;5.65;;;;;;;3.00;55.44;99350.81;2621383;54;20035;-64
2022/04/03 07:46:44;;;;;;;7.97;4.93;;;;;;;3.16;55.03;99358.19;2621320;54;20038;-64
2022/04/03 07:49:14;;;;;;;9.82;5.15;;;;;;;3.30;53.99;99356.97;2620954;54;20039;-66
2022/04/03 07:51:43;;;;;;;7.25;5.15;;;;;;;3.21;53.23;99356.00;2621909;39;20427;-65
2022/04/03 07:54:14;;;;;;;5.55;4.90;;;;;;;3.17;53.45;99354.59;2620510;54;20169;-63
2022/04/03 07:56:46;;;;;;;7.25;4.82;;;;;;;3.29;53.34;99361.38;2619950;54;20030;-64
2022/04/03 07:59:16;;;;;;;9.27;4.55;;;;;;;3.22;52.73;99366.31;2618481;54;20042;-63
2022/04/03 08:01:45;;;;;;;4.63;4.10;;;;;;;3.25;52.09;99370.44;2618407;54;20594;-63
2022/04/03 08:04:15;;;;;;;6.72;4.72;;;;;;;3.05;52.25;99364.31;2620076;54;20026;-63
2022/04/03 08:06:44;;;;;;;7.18;4.88;;;;;;;3.12;52.81;99364.63;2619736;39;20451;-64
2022/04/03 08:09:20;;;;;;;5.95;4.10;;;;;;;3.36;53.26;99369.53;2618537;54;20147;-62
2022/04/03 08:11:52;;;;;;;6.72;4.57;;;;;;;3.58;51.94;99374.53;2618196;54;20038;-63
2022/04/03 08:14:22;;;;;;;5.78;3.97;;;;;;;3.48;51.79;99377.13;2618962;39;20488;-63
2022/04/03 08:16:52;;;;;;;7.32;4.55;;;;;;;3.47;50.42;99380.72;2617935;54;20029;-63
2022/04/03 08:19:21;;;;;;;5.80;4.35;;;;;;;3.42;51.32;99377.66;2618264;54;20026;-63
2022/04/03 08:21:51;;;;;;;5.45;3.97;;;;;;;3.35;51.92;99373.94;2618288;54;20073;-63
2022/04/03 08:24:20;;;;;;;5.80;4.65;;;;;;;3.45;50.76;99377.38;2618445;54;20042;-62
2022/04/03 08:26:53;;;;;;;5.07;4.55;;;;;;;3.45;51.06;99380.00;2618013;54;20057;-63
2022/04/03 08:29:22;;;;;;;7.95;4.43;;;;;;;3.52;50.58;99390.75;2618286;54;20043;-63
2022/04/03 08:31:52;;;;;;;6.50;4.38;;;;;;;3.54;50.16;99390.63;2617806;54;20037;-63
2022/04/03 08:34:22;;;;;;;4.97;3.90;;;;;;;3.60;50.00;99384.88;2618854;39;20533;-64
2022/04/03 08:37:11;;;;;;;6.15;3.83;;;;;;;3.46;48.90;99384.25;2617885;54;20061;-63
2022/04/03 08:39:41;;;;;;;5.53;3.47;;;;;;;3.60;49.66;99395.34;2618478;54;20038;-64
2022/04/03 08:42:14;;;;;;;5.53;3.65;;;;;;;3.86;49.06;99391.25;2617951;54;20067;-64
2022/04/03 08:44:44;;;;;;;8.57;3.70;;;;;;;4.14;48.03;99394.84;2618662;47;20053;-63
2022/04/03 08:47:18;;;;;;;7.72;4.15;;;;;;;4.12;47.16;99395.94;2618224;47;20034;-64
2022/04/03 08:49:50;;;;;;;5.20;3.42;;;;;;;4.05;46.06;99394.88;2618924;39;20403;-64
2022/04/03 08:52:20;;;;;;;5.75;3.80;;;;;;;3.92;46.14;99389.91;2617771;54;20034;-65
2022/04/03 08:54:50;;;;;;;5.85;3.63;;;;;;;3.86;46.19;99396.47;2618029;54;20038;-62
2022/04/03 08:57:24;;;;;;;6.30;3.50;;;;;;;3.80;45.79;99394.41;2618116;54;20041;-63
2022/04/03 08:59:54;;;;;;;4.30;3.63;;;;;;;3.79;46.07;99400.59;2618649;54;20038;-63
2022/04/03 09:02:23;;;;;;;6.13;3.60;;;;;;;3.71;45.55;99400.44;2618316;54;20073;-64
2022/04/03 09:04:53;;;;;;;3.97;3.05;;;;;;;3.36;46.57;99399.09;2618064;54;20031;-66
2022/04/03 09:07:23;;;;;;;5.32;3.67;;;;;;;3.37;47.61;99403.34;2617860;54;20035;-64
2022/04/03 09:09:59;;;;;;;6.28;3.38;;;;;;;3.55;47.35;99410.56;2618415;54;20038;-63
2022/04/03 09:12:31;;;;;;;7.30;4.60;;;;;;;3.66;46.88;99415.69;2618046;54;20038;-63
2022/04/03 09:15:01;;;;;;;4.68;3.50;;;;;;;3.53;46.41;99413.31;2618338;54;20027;-62
2022/04/03 09:17:36;;;;;;;4.32;3.35;;;;;;;3.39;46.22;99411.09;2617787;54;20053;-63
2022/04/03 09:20:08;;;;;;;5.90;3.30;;;;;;;3.38;46.00;99414.63;2618206;54;20633;-63
2022/04/03 09:22:40;;;;;;;3.70;2.60;;;;;;;3.44;46.11;99419.34;2618234;54;20038;-63
2022/04/03 09:25:12;;;;;;;5.07;3.35;;;;;;;3.39;45.76;99419.75;2618222;54;20030;-63
2022/04/03 09:27:51;;;;;;;4.60;3.42;;;;;;;3.58;45.78;99415.53;2617740;54;20022;-62
2022/04/03 09:30:22;;;;;;;4.63;3.30;;;;;;;3.76;45.37;99419.19;2618085;54;20043;-62
2022/04/03 09:32:55;;;;;;;6.88;3.55;;;;;;;3.77;44.67;99423.44;2618100;54;20037;-63
2022/04/03 09:35:27;;;;;;;4.32;3.25;;;;;;;3.54;43.85;99416.75;2618225;54;20034;-63
2022/04/03 09:38:07;;;;;;;4.20;3.08;;;;;;;3.39;43.68;99422.38;2617933;54;20034;-63
2022/04/03 09:40:38;;;;;;;3.47;3.00;;;;;;;3.57;44.63;99414.72;2617991;39;20430;-62
2022/04/03 09:43:22;;;;;;;4.65;2.80;;;;;;;3.77;43.10;99425.22;2617438;47;20030;-62
2022/04/03 09:45:54;;;;;;;4.40;2.75;;;;;;;3.87;43.40;99420.84;2618672;39;20442;-62
2022/04/03 09:48:29;;;;;;;2.92;2.65;;;;;;;3.83;42.21;99422.91;2618154;54;20034;-62
2022/04/03 09:51:02;;;;;;;3.65;2.83;;;;;;;3.90;42.14;99429.25;2618091;54;20042;-61
2022/04/03 09:53:42;;;;;;;4.25;2.45;;;;;;;3.83;42.18;99424.69;2618607;39;20439;-62
2022/04/03 09:56:13;;;;;;;3.55;2.80;;;;;;;4.04;41.28;99419.34;2618292;54;20033;-62
2022/04/03 09:58:57;;;;;;;4.57;3.38;;;;;;;4.02;40.54;99421.28;2617868;54;20534;-62
2022/04/03 10:01:30;;;;;;;3.85;2.97;;;;;;;4.14;41.00;99418.41;2618143;54;20026;-62
2022/04/03 10:04:01;;;;;;;3.67;2.38;;;;;;;4.29;39.08;99410.16;2617680;54;20035;-63
2022/04/03 10:06:32;;;;;;;5.13;2.30;;;;;;;4.04;38.68;99428.06;2617502;54;20030;-63
2022/04/03 10:09:03;;;;;;;2.78;2.13;;;;;;;3.86;38.64;99425.25;2617803;54;20045;-63
2022/04/03 10:11:32;;;;;;;7.78;2.95;;;;;;;3.97;38.18;99416.47;2617473;54;20033;-62
2022/04/03 10:14:06;;;;;;;3.13;2.47;;;;;;;4.05;38.14;99408.75;2617275;54;20059;-64
2022/04/03 10:16:35;;;;;;;2.73;2.50;;;;;;;4.18;38.37;99422.41;2618742;39;20422;-64
2022/04/03 10:19:05;;;;;;;4.07;2.30;;;;;;;4.25;37.22;99416.63;2617276;54;20118;-62
2022/04/03 10:21:40;;;;;;;3.30;2.90;;;;;;;4.30;37.72;99422.28;2617254;54;20054;-64
2022/04/03 10:24:19;;;;;;;2.80;2.40;;;;;;;4.31;37.33;99406.44;2617965;39;20686;-63
2022/04/03 10:26:54;;;;;;;3.50;2.50;;;;;;;4.89;37.45;99393.25;2618501;54;20026;-64
2022/04/03 10:29:26;;;;;;;2.65;2.40;;;;;;;5.22;36.27;99393.72;2621361;39;20415;-64
2022/04/03 10:31:58;;;;;;;6.00;4.53;;;;;;;5.55;36.38;99396.75;2619779;54;20038;-64
2022/04/03 10:34:29;;;;;;;4.60;2.95;;;;;;;5.63;35.78;99386.34;2618367;54;20042;-64
2022/04/03 10:36:59;;;;;;;6.07;2.70;;;;;;;5.67;35.11;99385.06;2617463;54;20058;-63
2022/04/03 10:39:32;;;;;;;2.83;2.17;;;;;;;5.62;34.81;99392.56;2618893;54;20045;-63
2022/04/03 10:42:21;;;;;;;2.38;2.17;;;;;;;5.87;35.24;99396.28;2618723;54;20030;-64
2022/04/03 10:45:21;;;;;;;2.92;2.10;;;;;;;5.84;33.87;99392.19;2618959;54;20034;-63
2022/04/03 10:47:54;;;;;;;2.70;2.40;;;;;;;5.43;34.59;99393.50;2618303;54;20034;-62
2022/04/03 10:50:24;;;;;;;4.53;2.80;;;;;;;5.30;35.35;99393.00;2618985;54;20032;-63
2022/04/03 10:52:57;;;;;;;3.20;2.30;;;;;;;5.13;34.91;99395.41;2618868;54;20026;-64
2022/04/03 10:55:30;;;;;;;3.95;2.85;;;;;;;5.02;35.59;99392.13;2618809;54;20030;-63
2022/04/03 10:58:03;;;;;;;4.05;2.75;;;;;;;5.09;36.02;99385.34;2618571;54;20117;-64
2022/04/03 11:00:41;;;;;;;2.70;2.40;;;;;;;5.27;34.42;99386.25;2618878;54;20125;-64
2022/04/03 11:03:35;;;;;;;2.92;2.63;;;;;;;5.36;34.59;99384.56;2618304;47;20042;-62
2022/04/03 11:06:29;;;;;;;4.07;2.47;;;;;;;5.53;34.10;99383.78;2623085;54;20037;-63
2022/04/03 11:09:15;;;;;;;4.05;2.10;;;;;;;5.72;33.67;99381.06;2624350;54;20049;-63
2022/04/03 11:11:54;;;;;;;3.42;2.50;;;;;;;5.75;34.63;99366.81;2625450;39;20443;-63
2022/04/03 11:14:58;;;;;;;6.10;3.00;;;;;;;5.99;33.77;99370.69;2624243;54;20585;-64
2022/04/03 11:17:52;;;;;;;3.13;2.40;;;;;;;5.98;34.06;99362.00;2623114;46;20045;-63
2022/04/03 11:20:42;;;;;;;3.25;2.15;;;;;;;6.08;32.90;99357.50;2623608;54;20045;-62
2022/04/03 11:23:17;;;;;;;3.95;2.40;;;;;;;6.10;33.28;99355.53;2622426;54;20038;-63
2022/04/03 11:25:48;;;;;;;2.60;2.20;;;;;;;6.12;32.39;99363.25;2618557;54;20051;-62
2022/04/03 11:28:19;;;;;;;3.88;2.13;;;;;;;6.07;32.22;99355.84;2618241;54;20038;-63
2022/04/03 11:30:49;;;;;;;2.55;1.95;;;;;;;5.97;32.22;99346.41;2618721;54;20027;-63
2022/04/03 11:33:19;;;;;;;3.00;2.30;;;;;;;6.01;31.79;99345.13;2618568;54;20037;-64
2022/04/03 11:35:53;;;;;;;2.03;1.92;;;;;;;6.29;31.73;99344.06;2619264;54;20030;-62
2022/04/03 11:38:23;;;;;;;2.97;1.98;;;;;;;6.56;31.33;99337.84;2619353;54;20039;-62
2022/04/03 11:40:55;;;;;;;3.55;2.03;;;;;;;6.52;30.48;99335.69;2619011;54;20042;-63
2022/04/03 11:43:25;;;;;;;3.35;2.38;;;;;;;6.29;31.88;99341.44;2618529;54;20030;-63
2022/04/03 11:45:57;;;;;;;18.30;11.40;;;;;;;6.26;32.00;99333.88;2618898;54;20098;-63
2022/04/03 11:48:29;;;;;;;2.90;2.40;;;;;;;6.22;32.08;99337.75;2618053;54;20035;-64
2022/04/03 11:51:11;;;;;;;6.22;3.85;;;;;;;6.24;32.19;99325.28;2618408;54;20046;-63
2022/04/03 11:53:42;;;;;;;2.10;1.90;;;;;;;6.07;31.75;99326.97;2618621;54;20034;-63
2022/04/03 11:56:13;;;;;;;2.58;2.17;;;;;;;6.15;31.91;99339.34;2618834;54;20030;-63
2022/04/03 11:58:44;;;;;;;3.03;2.38;;;;;;;6.19;31.75;99330.19;2617840;54;20042;-62
2022/04/03 12:01:15;;;;;;;5.68;3.85;;;;;;;6.01;31.67;99324.97;2618843;54;20034;-64